createdAt,value
2022-08-23T00:01:36.565Z,19.50
2022-08-23T00:04:13.656Z,19.50
2022-08-23T00:06:42.373Z,19.50
2022-08-23T00:09:10.369Z,19.50
2022-08-23T00:11:42.760Z,19.40
2022-08-23T00:14:14.374Z,19.50
2022-08-23T00:16:42.388Z,19.50
2022-08-23T00:19:13.126Z,19.50
2022-08-23T00:21:41.463Z,19.50
2022-08-23T00:24:11.955Z,19.40
2022-08-23T00:27:10.653Z,19.40
2022-08-23T00:29:48.305Z,19.40
2022-08-23T00:32:20.630Z,19.40
2022-08-23T00:34:48.303Z,19.40
2022-08-23T00:37:17.512Z,19.40
2022-08-23T00:39:45.468Z,19.50
2022-08-23T00:42:52.183Z,19.40
2022-08-23T00:45:58.527Z,19.40
2022-08-23T00:48:26.476Z,19.30
2022-08-23T00:51:16.654Z,19.30
2022-08-23T00:53:48.654Z,19.30
2022-08-23T00:56:18.493Z,19.30
2022-08-23T00:58:46.850Z,19.20
2022-08-23T01:01:15.355Z,19.10
2022-08-23T01:03:49.532Z,19.10
2022-08-23T01:06:32.449Z,19.10
2022-08-23T01:09:04.262Z,19.00
2022-08-23T01:11:40.657Z,19.00
2022-08-23T01:14:20.707Z,19.00
2022-08-23T01:17:23.808Z,18.90
2022-08-23T01:20:01.583Z,18.80
2022-08-23T01:22:57.286Z,18.80
2022-08-23T01:25:28.908Z,18.70
2022-08-23T01:27:57.387Z,18.70
2022-08-23T01:30:32.483Z,18.70
2022-08-23T01:33:03.917Z,18.60
2022-08-23T01:35:42.982Z,18.60
2022-08-23T01:38:12.350Z,18.50
2022-08-23T01:40:40.549Z,18.50
2022-08-23T01:43:09.099Z,18.40
2022-08-23T01:45:39.634Z,18.40
2022-08-23T01:48:08.393Z,18.40
2022-08-23T01:53:09.888Z,18.30
2022-08-23T01:55:42.329Z,18.20
2022-08-23T01:58:09.888Z,18.20
2022-08-23T02:00:40.825Z,18.20
2022-08-23T02:03:12.487Z,18.20
2022-08-23T02:05:42.727Z,18.10
2022-08-23T02:08:30.735Z,18.10
2022-08-23T02:11:00.375Z,18.10
2022-08-23T02:13:27.924Z,18.10
2022-08-23T02:15:58.418Z,18.10
2022-08-23T02:18:26.355Z,18.10
2022-08-23T02:20:53.823Z,18.00
2022-08-23T02:23:22.702Z,18.10
2022-08-23T02:25:51.851Z,18.00
2022-08-23T02:28:23.913Z,18.00
2022-08-23T02:30:51.841Z,18.00
2022-08-23T02:33:20.048Z,17.90
2022-08-23T02:35:48.134Z,17.90
2022-08-23T02:38:18.144Z,17.90
2022-08-23T02:40:46.019Z,17.80
2022-08-23T02:43:13.924Z,17.70
2022-08-23T02:45:41.718Z,17.70
2022-08-23T02:48:09.345Z,17.70
2022-08-23T02:50:52.624Z,17.70
2022-08-23T02:53:20.310Z,17.60
2022-08-23T02:55:48.468Z,17.60
2022-08-23T02:58:16.417Z,17.50
2022-08-23T03:00:48.569Z,17.40
2022-08-23T03:03:16.943Z,17.40
2022-08-23T03:05:45.093Z,17.40
2022-08-23T03:08:13.706Z,17.30
2022-08-23T03:10:49.169Z,17.20
2022-08-23T03:13:17.364Z,17.20
2022-08-23T03:15:47.257Z,17.10
2022-08-23T03:18:16.197Z,17.00
2022-08-23T03:20:43.830Z,17.00
2022-08-23T03:23:12.719Z,17.00
2022-08-23T03:25:40.436Z,17.00
2022-08-23T03:28:18.436Z,17.00
2022-08-23T03:30:46.408Z,17.00
2022-08-23T03:33:14.752Z,16.90
2022-08-23T03:35:42.821Z,16.90
2022-08-23T03:38:14.325Z,16.80
2022-08-23T03:40:43.974Z,16.80
2022-08-23T03:43:11.659Z,16.80
2022-08-23T03:45:39.505Z,16.80
2022-08-23T03:48:07.773Z,16.80
2022-08-23T03:50:36.349Z,16.90
2022-08-23T03:53:04.537Z,17.00
2022-08-23T03:55:33.020Z,17.10
2022-08-23T03:58:02.660Z,17.10
2022-08-23T04:00:30.387Z,17.10
2022-08-23T04:02:57.898Z,17.00
2022-08-23T04:05:26.904Z,17.00
2022-08-23T04:07:59.162Z,16.90
2022-08-23T04:10:26.659Z,16.90
2022-08-23T04:12:56.213Z,16.90
2022-08-23T04:15:24.866Z,16.90
2022-08-23T04:17:52.559Z,16.90
2022-08-23T04:20:22.320Z,16.80
2022-08-23T04:22:59.431Z,16.80
2022-08-23T04:25:33.851Z,16.70
2022-08-23T04:28:03.906Z,16.70
2022-08-23T04:30:32.816Z,16.70
2022-08-23T04:33:01.612Z,16.60
2022-08-23T04:35:30.632Z,16.50
2022-08-23T04:37:58.056Z,16.40
2022-08-23T04:40:45.376Z,16.40
2022-08-23T04:43:15.164Z,16.40
2022-08-23T04:45:43.065Z,16.30
2022-08-23T04:48:19.607Z,16.30
2022-08-23T04:50:50.770Z,16.30
2022-08-23T04:53:20.795Z,16.30
2022-08-23T04:56:12.141Z,16.30
2022-08-23T04:58:41.289Z,16.30
2022-08-23T05:01:10.694Z,16.30
2022-08-23T05:03:38.893Z,16.30
2022-08-23T05:06:07.144Z,16.30
2022-08-23T05:08:39.597Z,16.30
2022-08-23T05:11:10.943Z,16.30
2022-08-23T05:13:41.525Z,16.40
2022-08-23T05:16:11.764Z,16.30
2022-08-23T05:18:45.059Z,16.30
2022-08-23T05:21:18.478Z,16.30
2022-08-23T05:23:50.929Z,16.30
2022-08-23T05:26:22.682Z,16.30
2022-08-23T05:28:50.842Z,16.30
2022-08-23T05:31:26.836Z,16.30
2022-08-23T05:33:58.002Z,16.40
2022-08-23T05:36:47.489Z,16.40
2022-08-23T05:39:28.733Z,16.30
2022-08-23T05:42:10.436Z,16.40
2022-08-23T05:44:37.937Z,16.40
2022-08-23T05:47:11.819Z,16.50
2022-08-23T05:49:58.198Z,16.60
2022-08-23T05:52:27.887Z,16.80
2022-08-23T05:54:55.267Z,16.90
2022-08-23T05:57:38.327Z,17.10
2022-08-23T06:00:11.761Z,17.40
2022-08-23T06:02:47.319Z,17.60
2022-08-23T06:05:17.049Z,17.90
2022-08-23T06:07:45.895Z,18.10
2022-08-23T06:10:16.321Z,18.30
2022-08-23T06:12:48.474Z,18.60
2022-08-23T06:15:16.044Z,18.70
2022-08-23T06:17:43.800Z,18.80
2022-08-23T06:20:11.446Z,18.90
2022-08-23T06:22:56.888Z,19.10
2022-08-23T06:25:24.373Z,19.40
2022-08-23T06:28:08.182Z,19.80
2022-08-23T06:30:39.961Z,20.20
2022-08-23T06:33:26.776Z,20.60
2022-08-23T06:36:06.219Z,21.00
2022-08-23T06:38:58.905Z,21.30
2022-08-23T06:41:45.711Z,21.60
2022-08-23T06:44:28.795Z,22.00
2022-08-23T06:47:17.538Z,22.50
2022-08-23T06:49:57.890Z,22.80
2022-08-23T06:52:53.049Z,22.70
2022-08-23T06:55:42.160Z,23.60
2022-08-23T06:58:19.446Z,24.30
2022-08-23T07:01:46.105Z,24.30
2022-08-23T07:04:41.816Z,24.60
2022-08-23T07:07:41.228Z,25.40
2022-08-23T07:10:12.750Z,26.10
2022-08-23T07:12:42.768Z,27.00
2022-08-23T07:15:12.432Z,27.70
2022-08-23T07:17:42.530Z,28.40
2022-08-23T07:20:10.770Z,28.60
2022-08-23T07:22:40.526Z,28.90
2022-08-23T07:25:09.319Z,28.90
2022-08-23T07:27:38.603Z,29.30
2022-08-23T07:30:08.689Z,29.60
2022-08-23T07:32:38.325Z,29.70
2022-08-23T07:35:22.708Z,29.60
2022-08-23T07:37:52.990Z,30.00
2022-08-23T07:40:21.131Z,30.10
2022-08-23T07:42:52.864Z,30.60
2022-08-23T07:45:23.436Z,30.90
2022-08-23T07:47:54.348Z,31.60
2022-08-23T07:50:22.998Z,32.10
2022-08-23T07:52:51.530Z,32.00
2022-08-23T07:55:20.185Z,31.70
2022-08-23T07:58:05.970Z,31.20
2022-08-23T08:00:41.137Z,31.60
2022-08-23T08:03:32.731Z,31.80
2022-08-23T08:06:34.159Z,31.80
2022-08-23T08:09:03.438Z,32.50
2022-08-23T08:11:35.084Z,32.80
2022-08-23T08:14:08.587Z,32.80
2022-08-23T08:16:44.798Z,32.60
2022-08-23T08:19:18.817Z,33.30
2022-08-23T08:22:05.892Z,33.80
2022-08-23T08:24:51.638Z,34.00
2022-08-23T08:27:19.218Z,33.60
2022-08-23T08:29:47.090Z,33.60
2022-08-23T08:32:15.769Z,34.10
2022-08-23T08:34:44.534Z,34.70
2022-08-23T08:37:13.069Z,34.60
2022-08-23T08:39:45.584Z,34.70
2022-08-23T08:42:19.927Z,35.00
2022-08-23T08:45:05.807Z,34.80
2022-08-23T08:47:49.723Z,35.00
2022-08-23T08:50:34.580Z,35.40
2022-08-23T08:53:13.726Z,35.70
2022-08-23T08:56:10.451Z,35.90
2022-08-23T08:58:50.941Z,37.10
2022-08-23T09:01:21.827Z,36.80
2022-08-23T09:03:52.364Z,36.70
2022-08-23T09:06:49.407Z,36.40
2022-08-23T09:09:22.671Z,36.80
2022-08-23T09:12:13.019Z,37.10
2022-08-23T09:15:12.337Z,37.80
2022-08-23T09:17:49.147Z,38.10
2022-08-23T09:20:20.595Z,37.80
2022-08-23T09:22:59.534Z,37.40
2022-08-23T09:25:31.599Z,37.20
2022-08-23T09:28:08.242Z,37.30
2022-08-23T09:30:52.942Z,37.70
2022-08-23T09:33:26.391Z,37.20
2022-08-23T09:36:08.470Z,37.00
2022-08-23T09:38:39.544Z,37.70
2022-08-23T09:41:23.581Z,38.80
2022-08-23T09:43:55.627Z,39.10
2022-08-23T09:46:31.026Z,39.80
2022-08-23T09:49:01.456Z,38.70
2022-08-23T09:51:37.700Z,38.90
2022-08-23T09:54:17.557Z,38.40
2022-08-23T09:56:57.675Z,38.30
2022-08-23T09:59:27.243Z,38.90
2022-08-23T10:02:02.574Z,38.50
2022-08-23T10:04:37.649Z,38.70
2022-08-23T10:07:43.075Z,39.40
2022-08-23T10:10:43.742Z,39.70
2022-08-23T10:13:17.174Z,40.10
2022-08-23T10:15:52.305Z,40.20
2022-08-23T10:19:05.347Z,40.60
2022-08-23T10:21:49.994Z,41.30
2022-08-23T10:24:29.705Z,42.70
2022-08-23T10:27:40.971Z,42.00
2022-08-23T10:30:23.266Z,41.30
2022-08-23T10:33:18.554Z,41.10
2022-08-23T10:36:15.171Z,39.80
2022-08-23T10:39:01.476Z,40.40
2022-08-23T10:41:57.186Z,42.10
2022-08-23T10:44:38.601Z,42.60
2022-08-23T10:47:42.058Z,42.60
2022-08-23T10:50:19.331Z,42.60
2022-08-23T10:52:56.431Z,42.50
2022-08-23T10:55:44.323Z,42.70
2022-08-23T10:58:23.574Z,43.10
2022-08-23T11:00:53.076Z,44.00
2022-08-23T11:03:36.323Z,43.80
2022-08-23T11:06:25.538Z,43.80
2022-08-23T11:09:02.137Z,43.10
2022-08-23T11:11:36.031Z,42.90
2022-08-23T11:14:06.058Z,42.50
2022-08-23T11:16:35.016Z,43.00
2022-08-23T11:19:02.439Z,43.40
2022-08-23T11:21:45.877Z,43.10
2022-08-23T11:24:16.405Z,44.00
2022-08-23T11:26:44.923Z,44.20
2022-08-23T11:29:25.206Z,44.10
2022-08-23T11:32:21.338Z,43.60
2022-08-23T11:35:33.020Z,44.10
2022-08-23T11:38:05.525Z,44.20
2022-08-23T11:40:52.907Z,44.00
2022-08-23T11:43:38.526Z,45.00
2022-08-23T11:46:57.624Z,46.60
2022-08-23T11:49:30.544Z,45.70
2022-08-23T11:52:22.439Z,45.50
2022-08-23T11:55:11.478Z,45.30
2022-08-23T11:57:57.073Z,45.40
2022-08-23T12:00:51.822Z,45.40
2022-08-23T12:03:37.193Z,45.10
2022-08-23T12:06:51.492Z,44.30
2022-08-23T12:09:27.079Z,44.10
2022-08-23T12:11:57.457Z,44.70
2022-08-23T12:14:37.838Z,44.10
2022-08-23T12:17:19.334Z,44.50
2022-08-23T12:19:54.195Z,44.00
2022-08-23T12:22:44.885Z,44.50
2022-08-23T12:25:20.077Z,44.90
2022-08-23T12:27:59.218Z,45.90
2022-08-23T12:30:44.276Z,46.70
2022-08-23T12:33:35.421Z,45.90
2022-08-23T12:36:25.784Z,45.50
2022-08-23T12:39:09.013Z,46.10
2022-08-23T12:41:55.590Z,45.70
2022-08-23T12:44:26.669Z,45.40
2022-08-23T12:46:54.827Z,44.50
2022-08-23T12:49:29.937Z,44.70
2022-08-23T12:52:05.804Z,44.30
2022-08-23T12:54:49.889Z,45.00
2022-08-23T12:57:37.361Z,44.70
2022-08-23T13:00:21.347Z,45.40
2022-08-23T13:03:08.408Z,45.60
2022-08-23T13:05:52.191Z,45.90
2022-08-23T13:08:34.137Z,46.30
2022-08-23T13:11:08.105Z,46.30
2022-08-23T13:13:39.418Z,46.30
2022-08-23T13:16:27.010Z,46.40
2022-08-23T13:18:56.491Z,45.30
2022-08-23T13:21:23.781Z,44.40
2022-08-23T13:23:57.021Z,43.80
2022-08-23T13:26:36.072Z,44.60
2022-08-23T13:29:09.082Z,44.80
2022-08-23T13:32:24.193Z,43.90
2022-08-23T13:34:56.219Z,44.40
2022-08-23T13:37:30.744Z,44.60
2022-08-23T13:40:05.348Z,44.50
2022-08-23T13:42:51.229Z,43.70
2022-08-23T13:45:31.442Z,43.40
2022-08-23T13:48:12.855Z,43.00
2022-08-23T13:50:41.107Z,42.50
2022-08-23T13:53:14.743Z,42.30
2022-08-23T13:55:58.713Z,41.70
2022-08-23T13:58:30.423Z,41.80
2022-08-23T14:01:00.608Z,41.50
2022-08-23T14:03:31.404Z,41.40
2022-08-23T14:05:58.824Z,41.60
2022-08-23T14:08:26.157Z,42.20
2022-08-23T14:10:54.226Z,42.10
2022-08-23T14:13:27.485Z,42.10
2022-08-23T14:16:33.005Z,41.70
2022-08-23T14:21:35.195Z,40.90
2022-08-23T14:24:03.080Z,41.70
2022-08-23T14:26:30.498Z,41.10
2022-08-23T14:28:57.868Z,40.10
2022-08-23T14:31:26.111Z,39.70
2022-08-23T14:33:53.610Z,39.40
2022-08-23T14:36:21.637Z,39.10
2022-08-23T14:38:51.022Z,39.00
2022-08-23T14:41:22.805Z,38.40
2022-08-23T14:43:50.717Z,38.60
2022-08-23T14:46:18.724Z,38.20
2022-08-23T14:48:46.356Z,38.10
2022-08-23T14:51:32.527Z,38.20
2022-08-23T14:54:01.544Z,37.70
2022-08-23T14:56:30.861Z,37.40
2022-08-23T14:58:58.638Z,37.00
2022-08-23T15:01:53.283Z,37.20
2022-08-23T15:04:23.188Z,36.50
2022-08-23T15:09:39.232Z,35.90
2022-08-23T15:12:57.364Z,35.80
2022-08-23T15:14:57.151Z,35.30
2022-08-23T15:17:30.920Z,34.80
2022-08-23T15:19:59.519Z,34.50
2022-08-23T15:22:26.867Z,34.70
2022-08-23T15:24:54.480Z,34.70
2022-08-23T15:27:24.502Z,34.20
2022-08-23T15:29:51.819Z,33.80
2022-08-23T15:32:22.573Z,33.90
2022-08-23T15:34:50.702Z,33.90
2022-08-23T15:37:21.138Z,33.70
2022-08-23T15:39:49.520Z,33.90
2022-08-23T15:42:20.475Z,34.30
2022-08-23T15:44:49.179Z,34.20
2022-08-23T15:47:21.716Z,33.90
2022-08-23T15:49:49.286Z,33.70
2022-08-23T15:52:17.331Z,33.00
2022-08-23T15:54:44.698Z,32.50
2022-08-23T15:57:17.639Z,32.30
2022-08-23T15:59:45.819Z,32.40
2022-08-23T16:02:13.653Z,32.40
2022-08-23T16:04:41.690Z,32.00
2022-08-23T16:07:12.813Z,31.70
2022-08-23T16:09:40.853Z,31.60
2022-08-23T16:12:08.739Z,31.20
2022-08-23T16:14:38.391Z,31.30
2022-08-23T16:17:07.189Z,31.50
2022-08-23T16:19:39.519Z,31.40
2022-08-23T16:22:07.408Z,31.20
2022-08-23T16:24:34.891Z,31.20
2022-08-23T16:27:02.250Z,31.00
2022-08-23T16:29:33.260Z,30.90
2022-08-23T16:32:01.317Z,30.80
2022-08-23T16:34:28.885Z,30.50
2022-08-23T16:37:00.222Z,30.60
2022-08-23T16:39:28.799Z,30.60
2022-08-23T16:41:56.350Z,30.60
2022-08-23T16:44:23.922Z,30.50
2022-08-23T16:46:51.589Z,30.30
2022-08-23T16:49:20.701Z,30.10
2022-08-23T16:51:49.713Z,30.00
2022-08-23T16:54:19.287Z,29.60
2022-08-23T16:56:47.306Z,29.50
2022-08-23T16:59:14.820Z,29.40
2022-08-23T17:01:51.579Z,29.50
2022-08-23T17:04:25.131Z,29.40
2022-08-23T17:06:59.335Z,29.50
2022-08-23T17:09:28.396Z,29.30
2022-08-23T17:11:58.123Z,29.20
2022-08-23T17:14:26.382Z,29.10
2022-08-23T17:16:55.065Z,28.90
2022-08-23T17:19:22.614Z,28.70
2022-08-23T17:21:50.036Z,28.50
2022-08-23T17:24:18.539Z,28.50
2022-08-23T17:26:45.887Z,28.20
2022-08-23T17:29:13.764Z,28.10
2022-08-23T17:31:43.535Z,28.00
2022-08-23T17:34:11.408Z,27.90
2022-08-23T17:36:48.004Z,27.80
2022-08-23T17:39:17.737Z,27.90
2022-08-23T17:41:45.737Z,28.00
2022-08-23T17:44:13.887Z,27.80
2022-08-23T17:46:44.161Z,27.60
2022-08-23T17:49:12.464Z,27.50
2022-08-23T17:51:41.105Z,27.30
2022-08-23T17:54:09.973Z,27.10
2022-08-23T17:56:37.880Z,26.90
2022-08-23T17:59:08.894Z,26.70
2022-08-23T18:01:37.809Z,26.60
2022-08-23T18:04:06.500Z,26.50
2022-08-23T18:06:36.443Z,26.30
2022-08-23T18:09:07.716Z,26.10
2022-08-23T18:11:36.114Z,25.80
2022-08-23T18:14:04.514Z,25.60
2022-08-23T18:16:35.658Z,25.40
2022-08-23T18:19:11.291Z,25.30
2022-08-23T18:21:42.327Z,25.20
2022-08-23T18:24:10.560Z,25.00
2022-08-23T18:26:56.735Z,24.90
2022-08-23T18:29:24.565Z,24.80
2022-08-23T18:31:52.238Z,24.60
2022-08-23T18:34:19.864Z,24.50
2022-08-23T18:36:47.760Z,24.40
2022-08-23T18:39:15.730Z,24.30
2022-08-23T18:41:43.979Z,24.10
2022-08-23T18:44:12.060Z,24.00
2022-08-23T18:46:41.990Z,23.90
2022-08-23T18:49:11.666Z,23.70
2022-08-23T18:51:40.473Z,23.60
2022-08-23T18:54:09.158Z,23.50
2022-08-23T18:56:36.569Z,23.40
2022-08-23T18:59:06.017Z,23.30
2022-08-23T19:01:39.011Z,23.30
2022-08-23T19:04:08.160Z,23.20
2022-08-23T19:06:36.886Z,23.10
2022-08-23T19:09:05.740Z,23.00
2022-08-23T19:11:33.461Z,22.90
2022-08-23T19:14:01.815Z,22.80
2022-08-23T19:16:31.022Z,22.60
2022-08-23T19:18:59.286Z,22.50
2022-08-23T19:21:27.126Z,22.40
2022-08-23T19:23:57.619Z,22.40
2022-08-23T19:26:32.693Z,22.40
2022-08-23T19:29:02.139Z,22.40
2022-08-23T19:31:34.519Z,22.20
2022-08-23T19:34:05.323Z,22.10
2022-08-23T19:36:46.328Z,22.00
2022-08-23T19:39:16.333Z,22.00
2022-08-23T19:41:44.771Z,21.90
2022-08-23T19:44:12.742Z,21.90
2022-08-23T19:46:44.612Z,21.80
2022-08-23T19:49:13.212Z,21.80
2022-08-23T19:51:41.357Z,21.80
2022-08-23T19:54:11.432Z,21.70
2022-08-23T19:56:48.587Z,21.60
2022-08-23T19:59:21.149Z,21.50
2022-08-23T20:01:49.807Z,21.40
2022-08-23T20:04:19.458Z,21.30
2022-08-23T20:06:48.662Z,21.20
2022-08-23T20:09:17.583Z,21.20
2022-08-23T20:11:45.196Z,21.10
2022-08-23T20:14:12.594Z,21.00
2022-08-23T20:16:42.015Z,20.90
2022-08-23T20:19:10.474Z,20.90
2022-08-23T20:21:39.697Z,20.90
2022-08-23T20:24:09.783Z,20.80
2022-08-23T20:26:46.544Z,20.80
2022-08-23T20:29:20.212Z,20.60
2022-08-23T20:31:54.078Z,20.60
2022-08-23T20:34:23.019Z,20.70
2022-08-23T20:36:55.797Z,20.60
2022-08-23T20:39:24.354Z,20.60
2022-08-23T20:41:52.421Z,20.50
2022-08-23T20:44:21.883Z,20.50
2022-08-23T20:46:53.923Z,20.50
2022-08-23T20:49:24.206Z,20.50
2022-08-23T20:51:51.796Z,20.40
2022-08-23T20:54:19.525Z,20.40
2022-08-23T20:56:51.169Z,20.40
2022-08-23T20:59:19.498Z,20.50
2022-08-23T21:01:47.594Z,20.50
2022-08-23T21:04:15.569Z,20.50
2022-08-23T21:06:46.209Z,20.50
2022-08-23T21:09:19.401Z,20.50
2022-08-23T21:11:48.124Z,20.50
2022-08-23T21:14:17.236Z,20.50
2022-08-23T21:16:47.569Z,20.50
2022-08-23T21:19:15.698Z,20.40
2022-08-23T21:21:43.624Z,20.40
2022-08-23T21:24:13.090Z,20.30
2022-08-23T21:26:41.383Z,20.30
2022-08-23T21:29:10.128Z,20.20
2022-08-23T21:31:38.712Z,20.20
2022-08-23T21:34:07.460Z,20.20
2022-08-23T21:36:35.297Z,20.20
2022-08-23T21:39:04.913Z,20.10
2022-08-23T21:41:39.864Z,20.10
2022-08-23T21:44:11.442Z,20.10
2022-08-23T21:46:39.285Z,20.00
2022-08-23T21:49:07.825Z,20.00
2022-08-23T21:51:35.648Z,19.90
2022-08-23T21:54:03.296Z,19.80
2022-08-23T21:56:31.140Z,19.80
2022-08-23T21:59:00.125Z,19.80
2022-08-23T22:01:27.888Z,19.70
2022-08-23T22:03:57.178Z,19.70
2022-08-23T22:06:24.794Z,19.60
2022-08-23T22:08:52.501Z,19.60
2022-08-23T22:11:22.572Z,19.70
2022-08-23T22:13:51.415Z,19.70
2022-08-23T22:16:19.254Z,19.60
2022-08-23T22:18:47.429Z,19.60
2022-08-23T22:21:14.878Z,19.60
2022-08-23T22:23:44.577Z,19.60
2022-08-23T22:26:13.788Z,19.50
2022-08-23T22:28:44.553Z,19.50
2022-08-23T22:31:14.909Z,19.50
2022-08-23T22:33:43.778Z,19.40
2022-08-23T22:36:15.414Z,19.40
2022-08-23T22:38:43.129Z,19.30
2022-08-23T22:41:11.078Z,19.30
2022-08-23T22:43:38.409Z,19.30
2022-08-23T22:46:06.104Z,19.30
2022-08-23T22:48:36.730Z,19.30
2022-08-23T22:51:07.069Z,19.30
2022-08-23T22:53:36.506Z,19.30
2022-08-23T22:56:05.969Z,19.40
2022-08-23T22:58:33.798Z,19.40
2022-08-23T23:01:04.980Z,19.40
2022-08-23T23:03:41.877Z,19.50
2022-08-23T23:06:09.605Z,19.50
2022-08-23T23:08:37.732Z,19.50
2022-08-23T23:11:08.524Z,19.60
2022-08-23T23:13:37.267Z,19.70
2022-08-23T23:16:06.916Z,19.80
2022-08-23T23:18:34.931Z,19.80
2022-08-23T23:21:04.845Z,19.90
2022-08-23T23:23:33.884Z,19.90
2022-08-23T23:26:02.307Z,19.80
2022-08-23T23:28:30.323Z,19.80
2022-08-23T23:30:57.890Z,19.70
2022-08-23T23:33:27.388Z,19.70
2022-08-23T23:35:54.758Z,19.70
2022-08-23T23:38:22.603Z,19.60
2022-08-23T23:40:50.038Z,19.60
2022-08-23T23:43:17.386Z,19.60
2022-08-23T23:45:44.767Z,19.60
2022-08-23T23:48:12.349Z,19.70
2022-08-23T23:50:45.290Z,19.70
2022-08-23T23:53:15.289Z,19.60
2022-08-23T23:55:43.169Z,19.50
2022-08-23T23:58:10.799Z,19.50
